createdAt,value
2023-02-26T00:01:40.205Z,40.97
2023-02-26T00:04:10.284Z,39.70
2023-02-26T00:06:53.308Z,42.33
2023-02-26T00:09:24.232Z,40.60
2023-02-26T00:11:52.738Z,43.30
2023-02-26T00:14:21.413Z,38.03
2023-02-26T00:16:56.603Z,35.83
2023-02-26T00:19:26.550Z,37.63
2023-02-26T00:21:55.154Z,39.40
2023-02-26T00:24:23.212Z,37.23
2023-02-26T00:26:51.247Z,37.47
2023-02-26T00:29:19.850Z,36.20
2023-02-26T00:31:48.534Z,37.67
2023-02-26T00:34:17.177Z,36.77
2023-02-26T00:36:53.338Z,35.20
2023-02-26T00:39:37.899Z,34.50
2023-02-26T00:42:06.662Z,34.10
2023-02-26T00:44:35.837Z,35.30
2023-02-26T00:47:15.082Z,35.83
2023-02-26T00:49:57.044Z,32.67
2023-02-26T00:52:34.846Z,34.50
2023-02-26T00:55:02.868Z,35.67
2023-02-26T00:57:30.893Z,35.00
2023-02-26T00:59:58.938Z,35.00
2023-02-26T01:02:27.481Z,38.00
2023-02-26T01:04:56.279Z,35.07
2023-02-26T01:07:26.011Z,35.90
2023-02-26T01:09:56.355Z,38.40
2023-02-26T01:12:24.914Z,39.13
2023-02-26T01:14:53.410Z,38.37
2023-02-26T01:17:26.687Z,40.53
2023-02-26T01:19:56.735Z,41.33
2023-02-26T01:22:29.619Z,39.20
2023-02-26T01:25:05.073Z,43.87
2023-02-26T01:27:33.671Z,44.07
2023-02-26T01:30:02.773Z,42.33
2023-02-26T01:32:42.325Z,42.50
2023-02-26T01:35:21.814Z,41.60
2023-02-26T01:37:54.286Z,42.63
2023-02-26T01:40:46.564Z,49.33
2023-02-26T01:43:20.888Z,50.73
2023-02-26T01:45:58.848Z,49.90
2023-02-26T01:48:37.233Z,55.03
2023-02-26T01:51:05.913Z,53.80
2023-02-26T01:53:34.120Z,53.17
2023-02-26T01:56:09.733Z,54.67
2023-02-26T01:58:38.826Z,54.60
2023-02-26T02:01:08.238Z,58.17
2023-02-26T02:03:40.686Z,50.67
2023-02-26T02:06:12.029Z,57.83
2023-02-26T02:08:40.250Z,56.80
2023-02-26T02:11:12.125Z,54.57
2023-02-26T02:13:53.670Z,55.40
2023-02-26T02:16:30.315Z,56.90
2023-02-26T02:19:08.883Z,55.43
2023-02-26T02:22:09.576Z,59.00
2023-02-26T02:24:49.736Z,55.37
2023-02-26T02:27:25.493Z,56.43
2023-02-26T02:30:21.750Z,53.47
2023-02-26T02:32:55.700Z,53.83
2023-02-26T02:35:29.266Z,55.20
2023-02-26T02:38:01.191Z,55.60
2023-02-26T02:40:33.073Z,53.37
2023-02-26T02:43:05.687Z,58.67
2023-02-26T02:45:39.385Z,54.73
2023-02-26T02:48:14.476Z,54.13
2023-02-26T02:50:46.999Z,56.67
2023-02-26T02:53:19.534Z,53.93
2023-02-26T02:55:54.136Z,53.17
2023-02-26T02:58:26.462Z,57.53
2023-02-26T03:00:58.112Z,56.60
2023-02-26T03:03:32.601Z,54.50
2023-02-26T03:06:00.822Z,56.20
2023-02-26T03:08:31.746Z,56.30
2023-02-26T03:10:59.906Z,51.70
2023-02-26T03:13:28.290Z,52.00
2023-02-26T03:16:17.299Z,52.50
2023-02-26T03:18:58.234Z,49.90
2023-02-26T03:21:32.989Z,50.07
2023-02-26T03:24:07.738Z,57.53
2023-02-26T03:26:57.749Z,52.80
2023-02-26T03:29:34.723Z,54.77
2023-02-26T03:32:08.239Z,42.60
2023-02-26T03:34:43.009Z,17.87
2023-02-26T03:37:18.466Z,11.10
2023-02-26T03:39:51.123Z,7.97
2023-02-26T03:42:23.812Z,5.77
2023-02-26T03:44:55.816Z,4.87
2023-02-26T03:47:24.614Z,4.50
2023-02-26T03:49:57.845Z,3.30
2023-02-26T03:52:31.048Z,2.70
2023-02-26T03:55:03.648Z,2.30
2023-02-26T03:57:31.879Z,2.23
2023-02-26T03:59:59.948Z,2.30
2023-02-26T04:02:32.701Z,1.97
2023-02-26T04:05:04.955Z,2.03
2023-02-26T04:07:33.270Z,2.03
2023-02-26T04:10:01.382Z,1.70
2023-02-26T04:12:30.636Z,1.27
2023-02-26T04:14:59.701Z,1.83
2023-02-26T04:17:29.112Z,1.30
2023-02-26T04:19:58.374Z,0.90
2023-02-26T04:22:27.966Z,1.00
2023-02-26T04:24:56.004Z,1.10
2023-02-26T04:27:24.085Z,1.20
2023-02-26T04:29:52.113Z,1.40
2023-02-26T04:32:20.253Z,1.10
2023-02-26T04:34:48.351Z,1.40
2023-02-26T04:37:16.621Z,1.33
2023-02-26T04:39:46.057Z,1.33
2023-02-26T04:42:14.120Z,2.00
2023-02-26T04:44:42.163Z,1.00
2023-02-26T04:47:10.177Z,1.20
2023-02-26T04:49:38.686Z,1.23
2023-02-26T04:52:06.790Z,1.10
2023-02-26T04:54:35.041Z,1.30
2023-02-26T04:57:04.632Z,1.10
2023-02-26T04:59:32.638Z,1.70
2023-02-26T05:02:00.750Z,1.30
2023-02-26T05:04:29.051Z,1.20
2023-02-26T05:06:57.271Z,1.40
2023-02-26T05:09:25.325Z,1.40
2023-02-26T05:11:53.399Z,1.30
2023-02-26T05:14:22.865Z,1.20
2023-02-26T05:16:51.018Z,1.40
2023-02-26T05:19:19.122Z,1.37
2023-02-26T05:21:47.196Z,1.10
2023-02-26T05:24:15.211Z,1.17
2023-02-26T05:26:43.544Z,1.27
2023-02-26T05:29:11.556Z,1.00
2023-02-26T05:31:41.143Z,1.10
2023-02-26T05:34:09.526Z,1.13
2023-02-26T05:36:37.594Z,1.20
2023-02-26T05:39:05.632Z,1.03
2023-02-26T05:41:33.656Z,1.07
2023-02-26T05:44:02.500Z,1.20
2023-02-26T05:46:30.714Z,1.10
2023-02-26T05:49:00.256Z,1.30
2023-02-26T05:51:28.647Z,1.57
2023-02-26T05:53:56.690Z,1.40
2023-02-26T05:56:24.947Z,1.70
2023-02-26T05:58:53.302Z,1.10
2023-02-26T06:01:21.472Z,0.90
2023-02-26T06:03:49.502Z,1.33
2023-02-26T06:06:18.921Z,1.20
2023-02-26T06:08:47.234Z,1.33
2023-02-26T06:11:15.598Z,1.40
2023-02-26T06:13:43.614Z,1.50
2023-02-26T06:16:11.717Z,1.00
2023-02-26T06:18:39.848Z,1.17
2023-02-26T06:21:07.888Z,1.67
2023-02-26T06:23:37.388Z,1.10
2023-02-26T06:26:05.710Z,1.50
2023-02-26T06:28:34.211Z,1.10
2023-02-26T06:31:02.337Z,1.37
2023-02-26T06:33:30.445Z,1.37
2023-02-26T06:36:00.275Z,1.47
2023-02-26T06:38:28.490Z,1.70
2023-02-26T06:40:57.913Z,1.50
2023-02-26T06:43:25.979Z,1.60
2023-02-26T06:45:54.007Z,1.47
2023-02-26T06:48:22.036Z,1.00
2023-02-26T06:50:50.097Z,2.33
2023-02-26T06:53:18.123Z,1.80
2023-02-26T06:55:46.850Z,1.63
2023-02-26T06:58:16.255Z,1.43
2023-02-26T07:00:44.429Z,1.20
2023-02-26T07:03:14.582Z,1.13
2023-02-26T07:05:43.078Z,1.90
2023-02-26T07:08:11.175Z,1.60
2023-02-26T07:10:39.575Z,1.63
2023-02-26T07:13:07.910Z,1.33
2023-02-26T07:15:37.297Z,1.10
2023-02-26T07:18:05.658Z,1.20
2023-02-26T07:20:34.145Z,1.33
2023-02-26T07:23:02.940Z,1.30
2023-02-26T07:25:31.066Z,1.57
2023-02-26T07:27:59.979Z,1.37
2023-02-26T07:30:28.417Z,1.63
2023-02-26T07:32:58.213Z,1.60
2023-02-26T07:35:26.608Z,0.90
2023-02-26T07:37:54.691Z,1.30
2023-02-26T07:40:22.738Z,0.97
2023-02-26T07:42:50.762Z,1.20
2023-02-26T07:45:22.503Z,2.97
2023-02-26T07:47:51.111Z,1.30
2023-02-26T07:50:24.888Z,1.73
2023-02-26T07:52:53.907Z,2.27
2023-02-26T07:55:22.140Z,1.27
2023-02-26T07:57:50.335Z,1.83
2023-02-26T08:00:19.654Z,2.47
2023-02-26T08:02:47.777Z,1.60
2023-02-26T08:05:15.921Z,1.40
2023-02-26T08:07:45.346Z,1.57
2023-02-26T08:10:13.816Z,1.47
2023-02-26T08:12:41.916Z,1.80
2023-02-26T08:15:12.418Z,1.90
2023-02-26T08:17:40.501Z,1.80
2023-02-26T08:20:09.996Z,2.40
2023-02-26T08:22:38.018Z,1.80
2023-02-26T08:25:08.473Z,1.60
2023-02-26T08:27:36.595Z,1.40
2023-02-26T08:30:04.871Z,1.37
2023-02-26T08:32:32.901Z,2.50
2023-02-26T08:35:01.080Z,1.37
2023-02-26T08:37:29.121Z,1.40
2023-02-26T08:39:57.186Z,1.10
2023-02-26T08:42:26.639Z,1.70
2023-02-26T08:44:54.831Z,1.77
2023-02-26T08:47:28.687Z,1.40
2023-02-26T08:49:58.956Z,1.63
2023-02-26T08:52:27.422Z,1.40
2023-02-26T08:54:55.457Z,1.47
2023-02-26T08:57:23.529Z,1.30
2023-02-26T08:59:52.923Z,1.90
2023-02-26T09:02:20.976Z,1.40
2023-02-26T09:04:49.006Z,2.40
2023-02-26T09:07:17.021Z,1.40
2023-02-26T09:09:45.084Z,1.37
2023-02-26T09:12:13.138Z,1.40
2023-02-26T09:14:41.190Z,1.20
2023-02-26T09:17:10.569Z,1.87
2023-02-26T09:19:38.628Z,1.60
2023-02-26T09:22:07.101Z,1.30
2023-02-26T09:24:36.563Z,1.10
2023-02-26T09:27:04.670Z,1.70
2023-02-26T09:29:32.705Z,1.50
2023-02-26T09:32:01.045Z,1.47
2023-02-26T09:34:30.535Z,1.40
2023-02-26T09:36:58.559Z,1.43
2023-02-26T09:39:26.603Z,1.30
2023-02-26T09:41:57.244Z,2.00
2023-02-26T09:44:26.773Z,2.30
2023-02-26T09:47:03.341Z,2.20
2023-02-26T09:49:42.958Z,1.50
2023-02-26T09:52:17.364Z,1.90
2023-02-26T09:54:49.083Z,2.03
2023-02-26T09:57:28.003Z,2.17
2023-02-26T09:59:56.322Z,1.70
2023-02-26T10:02:32.596Z,1.73
2023-02-26T10:05:11.993Z,1.50
2023-02-26T10:07:47.739Z,1.60
2023-02-26T10:10:23.801Z,1.20
2023-02-26T10:12:53.614Z,1.17
2023-02-26T10:15:24.555Z,1.13
2023-02-26T10:18:04.199Z,1.37
2023-02-26T10:20:39.629Z,1.50
2023-02-26T10:23:16.701Z,1.77
2023-02-26T10:25:49.489Z,1.23
2023-02-26T10:28:42.770Z,1.15
2023-02-26T10:31:19.397Z,1.50
2023-02-26T10:33:54.825Z,2.10
2023-02-26T10:36:28.830Z,1.47
2023-02-26T10:39:03.777Z,1.70
2023-02-26T10:41:35.546Z,2.47
2023-02-26T10:44:10.204Z,1.80
2023-02-26T10:46:46.608Z,1.90
2023-02-26T10:49:32.527Z,1.85
2023-02-26T10:52:11.858Z,1.97
2023-02-26T10:54:48.834Z,1.73
2023-02-26T10:57:24.105Z,1.73
2023-02-26T10:59:52.264Z,2.10
2023-02-26T11:02:37.619Z,2.17
2023-02-26T11:05:08.400Z,2.25
2023-02-26T11:07:40.497Z,2.00
2023-02-26T11:10:16.711Z,1.92
2023-02-26T11:12:45.938Z,1.67
2023-02-26T11:15:15.680Z,2.13
2023-02-26T11:17:44.502Z,2.30
2023-02-26T11:20:20.398Z,2.87
2023-02-26T11:22:53.440Z,2.20
2023-02-26T11:25:25.340Z,2.10
2023-02-26T11:28:00.569Z,1.77
2023-02-26T11:30:32.529Z,2.70
2023-02-26T11:33:08.180Z,1.77
2023-02-26T11:35:36.287Z,1.93
2023-02-26T11:38:05.783Z,1.70
2023-02-26T11:40:39.349Z,2.77
2023-02-26T11:43:11.626Z,2.67
2023-02-26T11:45:44.065Z,2.73
2023-02-26T11:48:17.310Z,2.30
2023-02-26T11:50:48.741Z,2.57
2023-02-26T11:53:21.466Z,2.57
2023-02-26T11:55:54.015Z,1.90
2023-02-26T11:58:23.933Z,2.43
2023-02-26T12:00:53.978Z,2.83
2023-02-26T12:03:23.919Z,2.60
2023-02-26T12:05:53.577Z,2.93
2023-02-26T12:08:27.463Z,3.00
2023-02-26T12:11:07.269Z,2.83
2023-02-26T12:13:43.118Z,3.40
2023-02-26T12:16:19.799Z,2.30
2023-02-26T12:18:58.801Z,2.28
2023-02-26T12:21:42.710Z,3.40
2023-02-26T12:24:36.166Z,2.47
2023-02-26T12:27:16.069Z,2.50
2023-02-26T12:30:01.271Z,2.88
2023-02-26T12:32:43.928Z,2.72
2023-02-26T12:35:39.417Z,2.80
2023-02-26T12:38:18.841Z,2.00
2023-02-26T12:41:20.092Z,2.40
2023-02-26T12:43:51.005Z,2.22
2023-02-26T12:46:29.205Z,2.10
2023-02-26T12:49:23.800Z,3.05
2023-02-26T12:52:09.226Z,3.13
2023-02-26T12:55:15.705Z,2.60
2023-02-26T12:58:18.404Z,2.85
2023-02-26T13:01:03.991Z,3.10
2023-02-26T13:04:00.556Z,2.47
2023-02-26T13:06:53.074Z,2.43
2023-02-26T13:09:32.336Z,2.75
2023-02-26T13:12:12.875Z,2.80
2023-02-26T13:14:51.424Z,3.40
2023-02-26T13:17:29.470Z,2.50
2023-02-26T13:20:01.703Z,5.93
2023-02-26T13:22:33.108Z,2.70
2023-02-26T13:25:04.500Z,2.63
2023-02-26T13:27:37.620Z,2.80
2023-02-26T13:30:20.673Z,2.43
2023-02-26T13:32:52.334Z,3.27
2023-02-26T13:35:23.169Z,2.92
2023-02-26T13:37:54.304Z,3.00
2023-02-26T13:40:47.110Z,3.10
2023-02-26T13:43:32.818Z,3.50
2023-02-26T13:46:18.646Z,2.78
2023-02-26T13:48:58.631Z,2.55
2023-02-26T13:51:34.899Z,2.10
2023-02-26T13:54:05.452Z,2.95
2023-02-26T13:56:56.634Z,2.00
2023-02-26T13:59:36.569Z,2.70
2023-02-26T14:02:44.496Z,2.95
2023-02-26T14:05:35.284Z,2.58
2023-02-26T14:08:28.804Z,1.70
2023-02-26T14:11:00.144Z,2.35
2023-02-26T14:13:36.689Z,2.90
2023-02-26T14:16:13.049Z,2.75
2023-02-26T14:18:51.974Z,2.72
2023-02-26T14:21:39.497Z,2.67
2023-02-26T14:24:16.122Z,2.45
2023-02-26T14:26:47.206Z,2.53
2023-02-26T14:29:20.870Z,3.25
2023-02-26T14:32:15.056Z,2.17
2023-02-26T14:34:51.817Z,3.00
2023-02-26T14:37:23.844Z,3.53
2023-02-26T14:39:58.490Z,2.63
2023-02-26T14:42:34.383Z,2.90
2023-02-26T14:45:10.634Z,3.00
2023-02-26T14:47:39.086Z,2.42
2023-02-26T14:50:13.026Z,2.45
2023-02-26T14:53:14.203Z,2.33
2023-02-26T14:55:48.904Z,2.10
2023-02-26T14:58:47.943Z,2.60
2023-02-26T15:01:28.219Z,2.63
2023-02-26T15:04:29.842Z,3.22
2023-02-26T15:07:27.786Z,3.20
2023-02-26T15:10:15.022Z,2.90
2023-02-26T15:13:03.362Z,3.25
2023-02-26T15:15:39.457Z,2.80
2023-02-26T15:18:25.168Z,2.80
2023-02-26T15:21:03.815Z,2.80
2023-02-26T15:23:45.694Z,3.05
2023-02-26T15:26:20.296Z,3.20
2023-02-26T15:28:49.099Z,3.40
2023-02-26T15:31:20.041Z,3.60
2023-02-26T15:33:49.826Z,2.80
2023-02-26T15:36:22.497Z,3.70
2023-02-26T15:38:56.271Z,3.03
2023-02-26T15:41:26.010Z,2.80
2023-02-26T15:43:57.095Z,3.10
2023-02-26T15:46:30.548Z,3.45
2023-02-26T15:49:02.431Z,3.17
2023-02-26T15:51:30.995Z,3.05
2023-02-26T15:54:03.312Z,2.83
2023-02-26T15:56:36.632Z,2.80
2023-02-26T15:59:07.734Z,3.58
2023-02-26T16:01:36.785Z,3.20
2023-02-26T16:04:08.879Z,3.55
2023-02-26T16:06:40.773Z,2.70
2023-02-26T16:09:17.350Z,3.10
2023-02-26T16:11:46.073Z,2.80
2023-02-26T16:14:20.779Z,2.88
2023-02-26T16:16:51.794Z,3.70
2023-02-26T16:19:24.365Z,2.53
2023-02-26T16:21:55.320Z,2.75
2023-02-26T16:24:24.931Z,3.58
2023-02-26T16:26:57.670Z,3.70
2023-02-26T16:29:28.025Z,3.80
2023-02-26T16:31:58.247Z,5.10
2023-02-26T16:34:37.508Z,5.15
2023-02-26T16:37:22.889Z,3.70
2023-02-26T16:39:58.188Z,2.92
2023-02-26T16:42:37.778Z,4.10
2023-02-26T16:45:20.994Z,2.85
2023-02-26T16:47:52.121Z,3.88
2023-02-26T16:50:22.836Z,5.72
2023-02-26T16:53:00.407Z,3.70
2023-02-26T16:55:32.693Z,3.50
2023-02-26T16:58:02.750Z,4.13
2023-02-26T17:00:31.930Z,3.05
2023-02-26T17:03:06.845Z,3.00
2023-02-26T17:05:37.360Z,3.30
2023-02-26T17:08:10.642Z,5.13
2023-02-26T17:10:46.469Z,3.20
2023-02-26T17:13:17.980Z,3.58
2023-02-26T17:15:47.585Z,4.22
2023-02-26T17:18:15.888Z,3.13
2023-02-26T17:20:44.784Z,5.15
2023-02-26T17:23:16.178Z,4.10
2023-02-26T17:25:47.699Z,3.50
2023-02-26T17:28:22.094Z,4.40
2023-02-26T17:30:50.388Z,4.00
2023-02-26T17:33:18.506Z,3.78
2023-02-26T17:35:46.743Z,3.80
2023-02-26T17:38:15.978Z,2.92
2023-02-26T17:40:47.929Z,3.45
2023-02-26T17:43:16.799Z,3.60
2023-02-26T17:45:45.031Z,5.18
2023-02-26T17:48:14.675Z,3.90
2023-02-26T17:50:47.029Z,3.85
2023-02-26T17:53:15.554Z,3.95
2023-02-26T17:55:45.489Z,3.28
2023-02-26T17:58:17.896Z,4.18
2023-02-26T18:00:49.737Z,5.20
2023-02-26T18:03:18.285Z,4.25
2023-02-26T18:05:47.588Z,5.25
2023-02-26T18:08:20.349Z,3.85
2023-02-26T18:10:49.941Z,4.10
2023-02-26T18:13:18.081Z,3.47
2023-02-26T18:15:46.740Z,5.50
2023-02-26T18:18:15.951Z,4.13
2023-02-26T18:20:46.092Z,3.90
2023-02-26T18:23:16.746Z,5.15
2023-02-26T18:25:46.453Z,5.40
2023-02-26T18:28:19.052Z,4.00
2023-02-26T18:30:47.383Z,3.90
2023-02-26T18:33:17.102Z,4.10
2023-02-26T18:35:47.248Z,4.55
2023-02-26T18:38:16.208Z,4.05
2023-02-26T18:40:44.686Z,4.30
2023-02-26T18:43:14.374Z,4.38
2023-02-26T18:45:45.418Z,4.45
2023-02-26T18:48:15.961Z,4.85
2023-02-26T18:50:44.378Z,3.75
2023-02-26T18:53:12.909Z,3.65
2023-02-26T18:55:41.195Z,4.40
2023-02-26T18:58:09.282Z,3.97
2023-02-26T19:00:37.360Z,4.10
2023-02-26T19:03:08.830Z,4.03
2023-02-26T19:05:37.012Z,4.70
2023-02-26T19:08:05.456Z,4.38
2023-02-26T19:10:34.322Z,3.33
2023-02-26T19:13:02.828Z,4.57
2023-02-26T19:15:31.047Z,3.85
2023-02-26T19:17:59.148Z,4.47
2023-02-26T19:20:28.587Z,4.10
2023-02-26T19:22:56.677Z,3.92
2023-02-26T19:25:27.077Z,3.13
2023-02-26T19:27:55.817Z,3.40
2023-02-26T19:30:24.711Z,3.38
2023-02-26T19:32:54.413Z,3.83
2023-02-26T19:35:23.041Z,4.15
2023-02-26T19:37:52.449Z,3.13
2023-02-26T19:40:21.009Z,3.40
2023-02-26T19:42:49.080Z,4.05
2023-02-26T19:45:18.138Z,3.25
2023-02-26T19:47:46.238Z,3.15
2023-02-26T19:50:15.154Z,3.58
2023-02-26T19:52:44.370Z,3.53
2023-02-26T19:55:14.734Z,3.20
2023-02-26T19:57:42.792Z,3.72
2023-02-26T20:00:13.116Z,3.60
2023-02-26T20:02:41.670Z,3.03
2023-02-26T20:05:15.865Z,3.70
2023-02-26T20:07:44.851Z,3.28
2023-02-26T20:10:15.943Z,3.50
2023-02-26T20:12:45.086Z,3.22
2023-02-26T20:15:14.012Z,3.20
2023-02-26T20:17:42.170Z,4.05
2023-02-26T20:20:11.701Z,3.65
2023-02-26T20:22:39.764Z,2.55
2023-02-26T20:25:09.072Z,3.10
2023-02-26T20:27:39.004Z,2.88
2023-02-26T20:30:08.640Z,3.85
2023-02-26T20:32:37.184Z,3.20
2023-02-26T20:35:05.943Z,3.20
2023-02-26T20:37:34.053Z,2.50
2023-02-26T20:40:02.168Z,2.95
2023-02-26T20:42:30.203Z,2.70
2023-02-26T20:44:59.592Z,5.47
2023-02-26T20:47:28.236Z,3.78
2023-02-26T20:49:56.280Z,2.50
2023-02-26T20:52:24.468Z,2.97
2023-02-26T20:54:52.488Z,2.67
2023-02-26T20:57:20.574Z,3.10
2023-02-26T20:59:48.696Z,2.70
2023-02-26T21:02:20.715Z,2.65
2023-02-26T21:04:49.038Z,3.67
2023-02-26T21:07:21.835Z,3.10
2023-02-26T21:09:51.846Z,3.13
2023-02-26T21:12:20.242Z,2.88
2023-02-26T21:14:51.311Z,3.10
2023-02-26T21:17:21.017Z,2.67
2023-02-26T21:19:49.077Z,3.45
2023-02-26T21:22:17.496Z,3.25
2023-02-26T21:24:45.861Z,3.00
2023-02-26T21:27:14.303Z,2.15
2023-02-26T21:29:42.341Z,3.00
2023-02-26T21:32:10.857Z,3.13
2023-02-26T21:34:40.343Z,2.20
2023-02-26T21:37:12.125Z,3.38
2023-02-26T21:39:40.584Z,3.55
2023-02-26T21:42:12.581Z,2.63
2023-02-26T21:44:40.815Z,2.70
2023-02-26T21:47:08.863Z,2.72
2023-02-26T21:49:36.964Z,3.13
2023-02-26T21:52:08.025Z,2.53
2023-02-26T21:54:36.306Z,2.28
2023-02-26T21:57:04.603Z,2.30
2023-02-26T21:59:32.705Z,3.20
2023-02-26T22:02:00.848Z,2.83
2023-02-26T22:04:29.045Z,2.88
2023-02-26T22:06:57.179Z,2.67
2023-02-26T22:09:26.618Z,2.60
2023-02-26T22:11:54.645Z,2.67
2023-02-26T22:14:22.694Z,3.55
2023-02-26T22:16:50.743Z,2.15
2023-02-26T22:19:18.801Z,2.67
2023-02-26T22:21:46.853Z,2.00
2023-02-26T22:24:14.901Z,2.40
2023-02-26T22:26:44.887Z,2.28
2023-02-26T22:29:12.990Z,3.47
2023-02-26T22:31:41.447Z,2.40
2023-02-26T22:34:09.521Z,2.58
2023-02-26T22:36:37.589Z,2.50
2023-02-26T22:39:06.668Z,2.55
2023-02-26T22:41:35.401Z,2.53
2023-02-26T22:44:05.643Z,2.80
2023-02-26T22:46:34.258Z,2.50
2023-02-26T22:49:02.273Z,3.10
2023-02-26T22:51:32.321Z,2.72
2023-02-26T22:54:00.747Z,2.25
2023-02-26T22:56:29.718Z,3.05
2023-02-26T22:58:57.965Z,2.63
2023-02-26T23:01:29.855Z,2.35
2023-02-26T23:03:59.184Z,2.35
2023-02-26T23:06:27.317Z,2.25
2023-02-26T23:08:55.383Z,2.43
2023-02-26T23:11:23.417Z,2.20
2023-02-26T23:13:51.426Z,2.40
2023-02-26T23:16:19.474Z,2.60
2023-02-26T23:18:48.981Z,2.47
2023-02-26T23:21:17.520Z,2.30
2023-02-26T23:23:45.568Z,3.03
2023-02-26T23:26:13.946Z,2.35
2023-02-26T23:28:42.014Z,3.10
2023-02-26T23:31:10.209Z,2.22
2023-02-26T23:33:38.317Z,2.58
2023-02-26T23:36:08.769Z,2.50
2023-02-26T23:38:36.865Z,2.20
2023-02-26T23:41:05.145Z,3.40
2023-02-26T23:43:33.363Z,2.70
2023-02-26T23:46:01.535Z,2.85
2023-02-26T23:48:29.594Z,2.05
2023-02-26T23:50:57.631Z,2.15
2023-02-26T23:53:27.045Z,2.93
2023-02-26T23:55:58.601Z,2.95
2023-02-26T23:58:27.962Z,2.75
